Montopolis, Texas
Current Conditions -  °F | °C
As of 6:53 AM on Thursday 18 Dec 2014 (Local Time) from KAUS Reporting Station
Light Fog Light Fog  
Wind Chill:   Ceiling: 400
Heat Index:   Visibility: 1mi
Dew Point:   Wind: 8mph
Humidity: 100%   Direction: 10°N
Pressure: 30.11"   Gusts: NA
Location:  30.2284°N, 97.7133°W
Report Text: KAUS 181253Z 01007KT 1SM R17L/P6000FT BR BCFG OVC004 09/09 A3011 RMK AO2 SFC VIS 2 DZE02 SLP197 P0000 T00890089
Loading
Personal Weather Stations






























Interactive Weather Map New forecast layout! Learn more

10-Day Weather Forecast

Advertisements
Track Severe Weather on mobile